sensor_id;sensor_type;location;lat;lon;timestamp;temperature;humidity
7972;DHT22;4031;49.758;6.120;2023-05-27T00:01:51;10.20;99.90
7972;DHT22;4031;49.758;6.120;2023-05-27T00:04:16;10.10;99.90
7972;DHT22;4031;49.758;6.120;2023-05-27T00:06:42;10.10;99.90
7972;DHT22;4031;49.758;6.120;2023-05-27T00:09:08;10.10;99.90
7972;DHT22;4031;49.758;6.120;2023-05-27T00:11:34;10.00;99.90
7972;DHT22;4031;49.758;6.120;2023-05-27T00:14:00;9.90;99.90
7972;DHT22;4031;49.758;6.120;2023-05-27T00:16:26;9.90;99.90
7972;DHT22;4031;49.758;6.120;2023-05-27T00:18:52;9.90;99.90
7972;DHT22;4031;49.758;6.120;2023-05-27T00:21:18;9.80;99.90
7972;DHT22;4031;49.758;6.120;2023-05-27T00:23:46;9.60;99.90
7972;DHT22;4031;49.758;6.120;2023-05-27T00:26:12;9.60;99.90
7972;DHT22;4031;49.758;6.120;2023-05-27T00:28:39;9.50;99.90
7972;DHT22;4031;49.758;6.120;2023-05-27T00:31:05;9.40;99.90
7972;DHT22;4031;49.758;6.120;2023-05-27T00:33:31;9.30;99.90
7972;DHT22;4031;49.758;6.120;2023-05-27T00:35:56;9.30;99.90
7972;DHT22;4031;49.758;6.120;2023-05-27T00:38:22;9.20;99.90
7972;DHT22;4031;49.758;6.120;2023-05-27T00:40:49;9.30;99.90
7972;DHT22;4031;49.758;6.120;2023-05-27T00:43:15;9.20;99.90
7972;DHT22;4031;49.758;6.120;2023-05-27T00:45:40;9.20;99.90
7972;DHT22;4031;49.758;6.120;2023-05-27T00:48:06;9.20;99.90
7972;DHT22;4031;49.758;6.120;2023-05-27T00:50:32;9.10;99.90
7972;DHT22;4031;49.758;6.120;2023-05-27T00:52:58;9.10;99.90
7972;DHT22;4031;49.758;6.120;2023-05-27T00:55:24;9.10;99.90
7972;DHT22;4031;49.758;6.120;2023-05-27T00:57:50;9.10;99.90
7972;DHT22;4031;49.758;6.120;2023-05-27T01:00:19;9.00;99.90
7972;DHT22;4031;49.758;6.120;2023-05-27T01:02:44;9.00;99.90
7972;DHT22;4031;49.758;6.120;2023-05-27T01:05:12;9.00;99.90
7972;DHT22;4031;49.758;6.120;2023-05-27T01:08:09;8.90;99.90
7972;DHT22;4031;49.758;6.120;2023-05-27T01:10:50;8.70;99.90
7972;DHT22;4031;49.758;6.120;2023-05-27T01:13:34;8.50;99.90
7972;DHT22;4031;49.758;6.120;2023-05-27T01:16:02;8.60;99.90
7972;DHT22;4031;49.758;6.120;2023-05-27T01:18:32;8.50;99.90
7972;DHT22;4031;49.758;6.120;2023-05-27T01:21:07;8.50;99.90
7972;DHT22;4031;49.758;6.120;2023-05-27T01:23:36;8.50;99.90
7972;DHT22;4031;49.758;6.120;2023-05-27T01:26:04;8.60;99.90
7972;DHT22;4031;49.758;6.120;2023-05-27T01:28:30;8.70;99.90
7972;DHT22;4031;49.758;6.120;2023-05-27T01:31:03;8.70;99.90
7972;DHT22;4031;49.758;6.120;2023-05-27T01:33:37;8.80;99.90
7972;DHT22;4031;49.758;6.120;2023-05-27T01:36:09;8.80;99.90
7972;DHT22;4031;49.758;6.120;2023-05-27T01:38:42;8.90;99.90
7972;DHT22;4031;49.758;6.120;2023-05-27T01:41:09;8.90;99.90
7972;DHT22;4031;49.758;6.120;2023-05-27T01:43:37;9.00;99.90
7972;DHT22;4031;49.758;6.120;2023-05-27T01:46:04;8.90;99.90
7972;DHT22;4031;49.758;6.120;2023-05-27T01:48:30;8.90;99.90
7972;DHT22;4031;49.758;6.120;2023-05-27T01:50:55;8.80;99.90
7972;DHT22;4031;49.758;6.120;2023-05-27T01:53:21;8.80;99.90
7972;DHT22;4031;49.758;6.120;2023-05-27T01:55:47;8.70;99.90
7972;DHT22;4031;49.758;6.120;2023-05-27T01:58:13;8.60;99.90
7972;DHT22;4031;49.758;6.120;2023-05-27T02:00:38;8.60;99.90
7972;DHT22;4031;49.758;6.120;2023-05-27T02:03:04;8.60;99.90
7972;DHT22;4031;49.758;6.120;2023-05-27T02:05:30;8.60;99.90
7972;DHT22;4031;49.758;6.120;2023-05-27T02:07:55;8.50;99.90
7972;DHT22;4031;49.758;6.120;2023-05-27T02:10:21;8.50;99.90
7972;DHT22;4031;49.758;6.120;2023-05-27T02:12:47;8.50;99.90
7972;DHT22;4031;49.758;6.120;2023-05-27T02:15:13;8.50;99.90
7972;DHT22;4031;49.758;6.120;2023-05-27T02:17:39;8.40;99.90
7972;DHT22;4031;49.758;6.120;2023-05-27T02:20:05;8.40;99.90
7972;DHT22;4031;49.758;6.120;2023-05-27T02:22:31;8.40;99.90
7972;DHT22;4031;49.758;6.120;2023-05-27T02:24:57;8.30;99.90
7972;DHT22;4031;49.758;6.120;2023-05-27T02:27:22;8.30;99.90
7972;DHT22;4031;49.758;6.120;2023-05-27T02:29:48;8.10;99.90
7972;DHT22;4031;49.758;6.120;2023-05-27T02:32:14;8.10;99.90
7972;DHT22;4031;49.758;6.120;2023-05-27T02:34:39;8.00;99.90
7972;DHT22;4031;49.758;6.120;2023-05-27T02:37:06;8.00;99.90
7972;DHT22;4031;49.758;6.120;2023-05-27T02:39:32;8.00;99.90
7972;DHT22;4031;49.758;6.120;2023-05-27T02:41:58;8.10;99.90
7972;DHT22;4031;49.758;6.120;2023-05-27T02:44:24;8.10;99.90
7972;DHT22;4031;49.758;6.120;2023-05-27T02:46:49;8.10;99.90
7972;DHT22;4031;49.758;6.120;2023-05-27T02:49:15;8.00;99.90
7972;DHT22;4031;49.758;6.120;2023-05-27T02:51:42;8.00;99.90
7972;DHT22;4031;49.758;6.120;2023-05-27T02:54:08;7.90;99.90
7972;DHT22;4031;49.758;6.120;2023-05-27T02:56:33;7.80;99.90
7972;DHT22;4031;49.758;6.120;2023-05-27T02:58:59;7.80;99.90
7972;DHT22;4031;49.758;6.120;2023-05-27T03:01:25;7.80;99.90
7972;DHT22;4031;49.758;6.120;2023-05-27T03:03:51;7.80;99.90
7972;DHT22;4031;49.758;6.120;2023-05-27T03:06:16;7.90;99.90
7972;DHT22;4031;49.758;6.120;2023-05-27T03:08:42;7.90;99.90
7972;DHT22;4031;49.758;6.120;2023-05-27T03:11:08;7.90;99.90
7972;DHT22;4031;49.758;6.120;2023-05-27T03:13:34;8.00;99.90
7972;DHT22;4031;49.758;6.120;2023-05-27T03:16:00;8.10;99.90
7972;DHT22;4031;49.758;6.120;2023-05-27T03:18:26;8.00;99.90
7972;DHT22;4031;49.758;6.120;2023-05-27T03:20:52;7.90;99.90
7972;DHT22;4031;49.758;6.120;2023-05-27T03:23:17;7.80;99.90
7972;DHT22;4031;49.758;6.120;2023-05-27T03:25:43;7.70;99.90
7972;DHT22;4031;49.758;6.120;2023-05-27T03:28:09;7.60;99.90
7972;DHT22;4031;49.758;6.120;2023-05-27T03:30:35;7.50;99.90
7972;DHT22;4031;49.758;6.120;2023-05-27T03:33:02;7.50;99.90
7972;DHT22;4031;49.758;6.120;2023-05-27T03:35:28;7.50;99.90
7972;DHT22;4031;49.758;6.120;2023-05-27T03:37:53;7.50;99.90
7972;DHT22;4031;49.758;6.120;2023-05-27T03:40:19;7.50;99.90
7972;DHT22;4031;49.758;6.120;2023-05-27T03:42:45;7.50;99.90
7972;DHT22;4031;49.758;6.120;2023-05-27T03:45:11;7.60;99.90
7972;DHT22;4031;49.758;6.120;2023-05-27T03:47:36;7.50;99.90
7972;DHT22;4031;49.758;6.120;2023-05-27T03:50:03;7.50;99.90
7972;DHT22;4031;49.758;6.120;2023-05-27T03:52:29;7.50;99.90
7972;DHT22;4031;49.758;6.120;2023-05-27T03:54:54;7.50;99.90
7972;DHT22;4031;49.758;6.120;2023-05-27T03:57:20;7.50;99.90
7972;DHT22;4031;49.758;6.120;2023-05-27T03:59:46;7.60;99.90
7972;DHT22;4031;49.758;6.120;2023-05-27T04:02:12;7.60;99.90
7972;DHT22;4031;49.758;6.120;2023-05-27T04:04:37;7.60;99.90
7972;DHT22;4031;49.758;6.120;2023-05-27T04:07:03;7.70;99.90
7972;DHT22;4031;49.758;6.120;2023-05-27T04:09:29;7.70;99.90
7972;DHT22;4031;49.758;6.120;2023-05-27T04:11:55;7.90;99.90
7972;DHT22;4031;49.758;6.120;2023-05-27T04:14:21;8.00;99.90
7972;DHT22;4031;49.758;6.120;2023-05-27T04:16:47;7.90;99.90
7972;DHT22;4031;49.758;6.120;2023-05-27T04:19:13;8.00;99.90
7972;DHT22;4031;49.758;6.120;2023-05-27T04:21:39;8.10;99.90
7972;DHT22;4031;49.758;6.120;2023-05-27T04:24:05;8.20;99.90
7972;DHT22;4031;49.758;6.120;2023-05-27T04:26:31;8.10;99.90
7972;DHT22;4031;49.758;6.120;2023-05-27T04:28:58;8.20;99.90
7972;DHT22;4031;49.758;6.120;2023-05-27T04:31:25;8.30;99.90
7972;DHT22;4031;49.758;6.120;2023-05-27T04:33:54;8.40;99.90
7972;DHT22;4031;49.758;6.120;2023-05-27T04:36:20;8.40;99.90
7972;DHT22;4031;49.758;6.120;2023-05-27T04:38:51;8.50;99.90
7972;DHT22;4031;49.758;6.120;2023-05-27T04:41:17;8.50;99.90
7972;DHT22;4031;49.758;6.120;2023-05-27T04:43:46;8.60;99.90
7972;DHT22;4031;49.758;6.120;2023-05-27T04:46:13;8.70;99.90
7972;DHT22;4031;49.758;6.120;2023-05-27T04:48:39;8.80;99.90
7972;DHT22;4031;49.758;6.120;2023-05-27T04:51:05;8.90;99.90
7972;DHT22;4031;49.758;6.120;2023-05-27T04:53:31;9.00;99.90
7972;DHT22;4031;49.758;6.120;2023-05-27T04:55:57;9.10;99.90
7972;DHT22;4031;49.758;6.120;2023-05-27T04:58:23;9.20;99.90
7972;DHT22;4031;49.758;6.120;2023-05-27T05:00:49;9.40;99.90
7972;DHT22;4031;49.758;6.120;2023-05-27T05:03:21;9.50;99.90
7972;DHT22;4031;49.758;6.120;2023-05-27T05:05:52;9.60;99.90
7972;DHT22;4031;49.758;6.120;2023-05-27T05:08:19;9.70;99.90
7972;DHT22;4031;49.758;6.120;2023-05-27T05:10:50;9.80;99.90
7972;DHT22;4031;49.758;6.120;2023-05-27T05:13:16;9.90;99.90
7972;DHT22;4031;49.758;6.120;2023-05-27T05:15:42;10.10;99.90
7972;DHT22;4031;49.758;6.120;2023-05-27T05:18:11;10.30;99.90
7972;DHT22;4031;49.758;6.120;2023-05-27T05:20:37;10.30;99.90
7972;DHT22;4031;49.758;6.120;2023-05-27T05:23:03;10.50;99.90
7972;DHT22;4031;49.758;6.120;2023-05-27T05:25:29;10.70;99.90
7972;DHT22;4031;49.758;6.120;2023-05-27T05:27:56;10.80;99.90
7972;DHT22;4031;49.758;6.120;2023-05-27T05:30:22;10.90;99.90
7972;DHT22;4031;49.758;6.120;2023-05-27T05:32:48;11.10;99.90
7972;DHT22;4031;49.758;6.120;2023-05-27T05:35:14;11.30;99.90
7972;DHT22;4031;49.758;6.120;2023-05-27T05:37:39;11.40;99.90
7972;DHT22;4031;49.758;6.120;2023-05-27T05:40:06;11.60;99.90
7972;DHT22;4031;49.758;6.120;2023-05-27T05:42:32;11.70;99.90
7972;DHT22;4031;49.758;6.120;2023-05-27T05:44:57;11.80;99.90
7972;DHT22;4031;49.758;6.120;2023-05-27T05:47:23;11.90;99.90
7972;DHT22;4031;49.758;6.120;2023-05-27T05:49:49;12.10;99.90
7972;DHT22;4031;49.758;6.120;2023-05-27T05:52:14;12.30;99.90
7972;DHT22;4031;49.758;6.120;2023-05-27T05:54:40;12.60;99.90
7972;DHT22;4031;49.758;6.120;2023-05-27T05:57:06;12.80;99.90
7972;DHT22;4031;49.758;6.120;2023-05-27T05:59:32;13.00;99.90
7972;DHT22;4031;49.758;6.120;2023-05-27T06:01:58;13.20;99.90
7972;DHT22;4031;49.758;6.120;2023-05-27T06:04:23;13.30;99.90
7972;DHT22;4031;49.758;6.120;2023-05-27T06:06:49;13.50;99.90
7972;DHT22;4031;49.758;6.120;2023-05-27T06:09:15;13.70;99.90
7972;DHT22;4031;49.758;6.120;2023-05-27T06:11:40;13.90;99.90
7972;DHT22;4031;49.758;6.120;2023-05-27T06:14:06;14.20;99.90
7972;DHT22;4031;49.758;6.120;2023-05-27T06:16:35;14.40;99.90
7972;DHT22;4031;49.758;6.120;2023-05-27T06:19:02;14.90;99.90
7972;DHT22;4031;49.758;6.120;2023-05-27T06:21:27;15.30;99.90
7972;DHT22;4031;49.758;6.120;2023-05-27T06:23:55;15.90;99.90
7972;DHT22;4031;49.758;6.120;2023-05-27T06:26:21;16.70;99.90
7972;DHT22;4031;49.758;6.120;2023-05-27T06:28:47;17.10;99.90
7972;DHT22;4031;49.758;6.120;2023-05-27T06:31:13;17.60;99.90
7972;DHT22;4031;49.758;6.120;2023-05-27T06:33:41;17.90;99.90
7972;DHT22;4031;49.758;6.120;2023-05-27T06:36:07;18.10;99.90
7972;DHT22;4031;49.758;6.120;2023-05-27T06:38:33;18.70;99.90
7972;DHT22;4031;49.758;6.120;2023-05-27T06:40:58;19.00;99.90
7972;DHT22;4031;49.758;6.120;2023-05-27T06:43:24;19.50;99.90
7972;DHT22;4031;49.758;6.120;2023-05-27T06:45:50;20.10;99.90
7972;DHT22;4031;49.758;6.120;2023-05-27T06:48:16;20.50;99.90
7972;DHT22;4031;49.758;6.120;2023-05-27T06:50:41;20.90;99.90
7972;DHT22;4031;49.758;6.120;2023-05-27T06:53:07;21.10;99.90
7972;DHT22;4031;49.758;6.120;2023-05-27T06:55:33;21.50;99.90
7972;DHT22;4031;49.758;6.120;2023-05-27T06:57:58;21.80;99.90
7972;DHT22;4031;49.758;6.120;2023-05-27T07:00:24;22.10;99.90
7972;DHT22;4031;49.758;6.120;2023-05-27T07:02:51;22.60;99.90
7972;DHT22;4031;49.758;6.120;2023-05-27T07:05:17;23.10;99.90
7972;DHT22;4031;49.758;6.120;2023-05-27T07:07:42;23.80;99.90
7972;DHT22;4031;49.758;6.120;2023-05-27T07:10:08;24.20;99.90
7972;DHT22;4031;49.758;6.120;2023-05-27T07:12:34;24.30;99.90
7972;DHT22;4031;49.758;6.120;2023-05-27T07:14:59;24.40;99.90
7972;DHT22;4031;49.758;6.120;2023-05-27T07:17:25;24.20;99.90
7972;DHT22;4031;49.758;6.120;2023-05-27T07:19:51;24.10;99.90
7972;DHT22;4031;49.758;6.120;2023-05-27T07:22:16;24.10;99.90
7972;DHT22;4031;49.758;6.120;2023-05-27T07:24:43;24.10;99.90
7972;DHT22;4031;49.758;6.120;2023-05-27T07:27:09;24.20;99.90
7972;DHT22;4031;49.758;6.120;2023-05-27T07:29:34;24.60;99.90
7972;DHT22;4031;49.758;6.120;2023-05-27T07:32:00;25.10;99.90
7972;DHT22;4031;49.758;6.120;2023-05-27T07:34:26;25.40;99.90
7972;DHT22;4031;49.758;6.120;2023-05-27T07:36:52;25.30;98.90
7972;DHT22;4031;49.758;6.120;2023-05-27T07:39:17;25.20;99.90
7972;DHT22;4031;49.758;6.120;2023-05-27T07:41:43;25.70;99.90
7972;DHT22;4031;49.758;6.120;2023-05-27T07:44:09;26.30;99.90
7972;DHT22;4031;49.758;6.120;2023-05-27T07:46:35;26.20;99.50
7972;DHT22;4031;49.758;6.120;2023-05-27T07:49:04;26.10;98.30
7972;DHT22;4031;49.758;6.120;2023-05-27T07:51:31;25.80;97.20
7972;DHT22;4031;49.758;6.120;2023-05-27T07:53:57;25.80;97.00
7972;DHT22;4031;49.758;6.120;2023-05-27T07:56:23;25.90;93.70
7972;DHT22;4031;49.758;6.120;2023-05-27T07:58:48;26.30;94.00
7972;DHT22;4031;49.758;6.120;2023-05-27T08:01:14;26.70;93.40
7972;DHT22;4031;49.758;6.120;2023-05-27T08:03:40;26.60;91.20
7972;DHT22;4031;49.758;6.120;2023-05-27T08:06:06;26.20;91.90
7972;DHT22;4031;49.758;6.120;2023-05-27T08:08:32;26.30;89.20
7972;DHT22;4031;49.758;6.120;2023-05-27T08:10:58;26.40;90.00
7972;DHT22;4031;49.758;6.120;2023-05-27T08:13:23;26.20;87.30
7972;DHT22;4031;49.758;6.120;2023-05-27T08:15:49;26.30;84.40
7972;DHT22;4031;49.758;6.120;2023-05-27T08:18:15;26.10;84.80
7972;DHT22;4031;49.758;6.120;2023-05-27T08:20:40;26.20;83.30
7972;DHT22;4031;49.758;6.120;2023-05-27T08:23:06;26.20;85.70
7972;DHT22;4031;49.758;6.120;2023-05-27T08:25:32;26.50;81.70
7972;DHT22;4031;49.758;6.120;2023-05-27T08:27:58;26.40;79.90
7972;DHT22;4031;49.758;6.120;2023-05-27T08:30:27;26.40;81.30
7972;DHT22;4031;49.758;6.120;2023-05-27T08:32:57;26.60;80.80
7972;DHT22;4031;49.758;6.120;2023-05-27T08:35:23;26.70;80.60
7972;DHT22;4031;49.758;6.120;2023-05-27T08:37:49;26.80;79.80
7972;DHT22;4031;49.758;6.120;2023-05-27T08:40:16;27.20;82.60
7972;DHT22;4031;49.758;6.120;2023-05-27T08:42:43;27.30;79.20
7972;DHT22;4031;49.758;6.120;2023-05-27T08:45:10;27.90;78.80
7972;DHT22;4031;49.758;6.120;2023-05-27T08:47:38;27.50;76.80
7972;DHT22;4031;49.758;6.120;2023-05-27T08:50:05;27.60;76.30
7972;DHT22;4031;49.758;6.120;2023-05-27T08:52:32;28.10;74.80
7972;DHT22;4031;49.758;6.120;2023-05-27T08:55:00;28.20;74.50
7972;DHT22;4031;49.758;6.120;2023-05-27T08:57:31;28.40;71.70
7972;DHT22;4031;49.758;6.120;2023-05-27T08:59:58;28.60;75.70
7972;DHT22;4031;49.758;6.120;2023-05-27T09:02:24;28.40;71.70
7972;DHT22;4031;49.758;6.120;2023-05-27T09:04:51;28.70;73.50
7972;DHT22;4031;49.758;6.120;2023-05-27T09:07:19;28.60;71.60
7972;DHT22;4031;49.758;6.120;2023-05-27T09:10:06;29.00;71.50
7972;DHT22;4031;49.758;6.120;2023-05-27T09:12:33;29.10;69.70
7972;DHT22;4031;49.758;6.120;2023-05-27T09:14:58;29.40;67.30
7972;DHT22;4031;49.758;6.120;2023-05-27T09:17:25;29.30;67.40
7972;DHT22;4031;49.758;6.120;2023-05-27T09:19:51;29.30;69.40
7972;DHT22;4031;49.758;6.120;2023-05-27T09:22:20;29.50;67.90
7972;DHT22;4031;49.758;6.120;2023-05-27T09:24:53;29.20;64.20
7972;DHT22;4031;49.758;6.120;2023-05-27T09:27:23;29.00;66.60
7972;DHT22;4031;49.758;6.120;2023-05-27T09:29:53;29.00;68.80
7972;DHT22;4031;49.758;6.120;2023-05-27T09:32:31;28.90;66.80
7972;DHT22;4031;49.758;6.120;2023-05-27T09:35:01;29.40;66.00
7972;DHT22;4031;49.758;6.120;2023-05-27T09:37:31;30.00;66.20
7972;DHT22;4031;49.758;6.120;2023-05-27T09:40:07;30.00;63.00
7972;DHT22;4031;49.758;6.120;2023-05-27T09:42:43;30.20;62.90
7972;DHT22;4031;49.758;6.120;2023-05-27T09:45:17;29.80;62.80
7972;DHT22;4031;49.758;6.120;2023-05-27T09:47:48;30.20;65.10
7972;DHT22;4031;49.758;6.120;2023-05-27T09:50:16;29.70;59.90
7972;DHT22;4031;49.758;6.120;2023-05-27T09:52:44;29.70;61.70
7972;DHT22;4031;49.758;6.120;2023-05-27T09:55:11;29.70;60.00
7972;DHT22;4031;49.758;6.120;2023-05-27T09:57:38;30.00;60.50
7972;DHT22;4031;49.758;6.120;2023-05-27T10:00:09;30.00;68.00
7972;DHT22;4031;49.758;6.120;2023-05-27T10:02:44;29.70;59.30
7972;DHT22;4031;49.758;6.120;2023-05-27T10:05:12;30.10;59.70
7972;DHT22;4031;49.758;6.120;2023-05-27T10:07:45;30.10;62.80
7972;DHT22;4031;49.758;6.120;2023-05-27T10:10:14;30.30;58.40
7972;DHT22;4031;49.758;6.120;2023-05-27T10:12:43;30.20;57.50
7972;DHT22;4031;49.758;6.120;2023-05-27T10:17:56;30.30;59.10
7972;DHT22;4031;49.758;6.120;2023-05-27T10:20:31;30.10;59.40
7972;DHT22;4031;49.758;6.120;2023-05-27T10:23:24;29.90;57.40
7972;DHT22;4031;49.758;6.120;2023-05-27T10:25:54;30.00;58.20
7972;DHT22;4031;49.758;6.120;2023-05-27T10:28:38;30.00;56.80
7972;DHT22;4031;49.758;6.120;2023-05-27T10:31:10;30.40;62.40
7972;DHT22;4031;49.758;6.120;2023-05-27T10:33:39;30.20;59.30
7972;DHT22;4031;49.758;6.120;2023-05-27T10:36:09;29.80;62.10
7972;DHT22;4031;49.758;6.120;2023-05-27T10:38:37;29.90;69.20
7972;DHT22;4031;49.758;6.120;2023-05-27T10:41:05;30.30;66.90
7972;DHT22;4031;49.758;6.120;2023-05-27T10:43:32;30.30;62.80
7972;DHT22;4031;49.758;6.120;2023-05-27T10:46:02;30.30;65.50
7972;DHT22;4031;49.758;6.120;2023-05-27T10:48:28;30.50;65.00
7972;DHT22;4031;49.758;6.120;2023-05-27T10:50:57;30.20;64.50
7972;DHT22;4031;49.758;6.120;2023-05-27T10:53:26;30.20;67.30
7972;DHT22;4031;49.758;6.120;2023-05-27T10:55:53;30.30;66.20
7972;DHT22;4031;49.758;6.120;2023-05-27T10:58:19;30.50;62.00
7972;DHT22;4031;49.758;6.120;2023-05-27T11:00:51;30.20;63.70
7972;DHT22;4031;49.758;6.120;2023-05-27T11:03:25;30.10;62.70
7972;DHT22;4031;49.758;6.120;2023-05-27T11:06:02;29.90;62.20
7972;DHT22;4031;49.758;6.120;2023-05-27T11:08:32;30.10;61.20
7972;DHT22;4031;49.758;6.120;2023-05-27T11:10:59;30.00;59.60
7972;DHT22;4031;49.758;6.120;2023-05-27T11:13:32;30.10;59.50
7972;DHT22;4031;49.758;6.120;2023-05-27T11:16:05;29.90;61.90
7972;DHT22;4031;49.758;6.120;2023-05-27T11:18:46;29.80;62.60
7972;DHT22;4031;49.758;6.120;2023-05-27T11:21:13;29.90;60.70
7972;DHT22;4031;49.758;6.120;2023-05-27T11:23:47;29.90;60.80
7972;DHT22;4031;49.758;6.120;2023-05-27T11:26:18;29.50;60.20
7972;DHT22;4031;49.758;6.120;2023-05-27T11:28:49;29.30;61.40
7972;DHT22;4031;49.758;6.120;2023-05-27T11:31:28;29.20;62.60
7972;DHT22;4031;49.758;6.120;2023-05-27T11:33:55;29.40;61.00
7972;DHT22;4031;49.758;6.120;2023-05-27T11:36:21;29.40;61.60
7972;DHT22;4031;49.758;6.120;2023-05-27T11:38:58;29.40;62.00
7972;DHT22;4031;49.758;6.120;2023-05-27T11:41:29;29.00;61.70
7972;DHT22;4031;49.758;6.120;2023-05-27T11:43:57;28.80;62.70
7972;DHT22;4031;49.758;6.120;2023-05-27T11:46:32;29.10;60.50
7972;DHT22;4031;49.758;6.120;2023-05-27T11:48:59;29.30;62.80
7972;DHT22;4031;49.758;6.120;2023-05-27T11:51:29;29.40;63.80
7972;DHT22;4031;49.758;6.120;2023-05-27T11:53:55;29.40;63.50
7972;DHT22;4031;49.758;6.120;2023-05-27T11:56:23;29.30;63.40
7972;DHT22;4031;49.758;6.120;2023-05-27T11:58:50;29.20;62.80
7972;DHT22;4031;49.758;6.120;2023-05-27T12:01:15;29.40;61.30
7972;DHT22;4031;49.758;6.120;2023-05-27T12:03:41;29.30;61.30
7972;DHT22;4031;49.758;6.120;2023-05-27T12:06:07;29.30;63.60
7972;DHT22;4031;49.758;6.120;2023-05-27T12:08:32;29.10;62.00
7972;DHT22;4031;49.758;6.120;2023-05-27T12:10:58;29.20;66.00
7972;DHT22;4031;49.758;6.120;2023-05-27T12:13:24;29.60;63.20
7972;DHT22;4031;49.758;6.120;2023-05-27T12:15:51;29.80;62.60
7972;DHT22;4031;49.758;6.120;2023-05-27T12:18:17;29.90;63.50
7972;DHT22;4031;49.758;6.120;2023-05-27T12:20:44;29.80;60.20
7972;DHT22;4031;49.758;6.120;2023-05-27T12:23:10;29.90;62.80
7972;DHT22;4031;49.758;6.120;2023-05-27T12:25:36;29.90;62.50
7972;DHT22;4031;49.758;6.120;2023-05-27T12:28:01;29.70;62.90
7972;DHT22;4031;49.758;6.120;2023-05-27T12:30:27;30.00;60.80
7972;DHT22;4031;49.758;6.120;2023-05-27T12:32:53;29.90;60.00
7972;DHT22;4031;49.758;6.120;2023-05-27T12:35:20;30.00;60.50
7972;DHT22;4031;49.758;6.120;2023-05-27T12:37:45;30.50;62.10
7972;DHT22;4031;49.758;6.120;2023-05-27T12:40:11;30.40;60.80
7972;DHT22;4031;49.758;6.120;2023-05-27T12:42:40;30.00;58.20
7972;DHT22;4031;49.758;6.120;2023-05-27T12:45:08;29.90;59.60
7972;DHT22;4031;49.758;6.120;2023-05-27T12:47:34;30.00;62.90
7972;DHT22;4031;49.758;6.120;2023-05-27T12:50:00;30.10;59.00
7972;DHT22;4031;49.758;6.120;2023-05-27T12:52:26;30.00;61.70
7972;DHT22;4031;49.758;6.120;2023-05-27T12:54:53;30.30;59.00
7972;DHT22;4031;49.758;6.120;2023-05-27T12:57:19;30.40;61.50
7972;DHT22;4031;49.758;6.120;2023-05-27T12:59:45;30.70;60.10
7972;DHT22;4031;49.758;6.120;2023-05-27T13:02:12;30.90;58.60
7972;DHT22;4031;49.758;6.120;2023-05-27T13:04:39;31.10;60.70
7972;DHT22;4031;49.758;6.120;2023-05-27T13:07:05;31.00;58.20
7972;DHT22;4031;49.758;6.120;2023-05-27T13:09:35;30.90;59.60
7972;DHT22;4031;49.758;6.120;2023-05-27T13:12:01;30.80;58.40
7972;DHT22;4031;49.758;6.120;2023-05-27T13:14:27;30.60;58.20
7972;DHT22;4031;49.758;6.120;2023-05-27T13:16:53;30.80;57.10
7972;DHT22;4031;49.758;6.120;2023-05-27T13:19:20;31.10;57.30
7972;DHT22;4031;49.758;6.120;2023-05-27T13:21:46;31.40;56.80
7972;DHT22;4031;49.758;6.120;2023-05-27T13:24:11;31.50;57.90
7972;DHT22;4031;49.758;6.120;2023-05-27T13:26:38;31.70;55.70
7972;DHT22;4031;49.758;6.120;2023-05-27T13:29:03;31.80;55.60
7972;DHT22;4031;49.758;6.120;2023-05-27T13:31:29;31.80;57.60
7972;DHT22;4031;49.758;6.120;2023-05-27T13:33:55;31.90;57.10
7972;DHT22;4031;49.758;6.120;2023-05-27T13:36:21;32.20;57.90
7972;DHT22;4031;49.758;6.120;2023-05-27T13:38:46;32.10;55.80
7972;DHT22;4031;49.758;6.120;2023-05-27T13:41:12;32.00;57.00
7972;DHT22;4031;49.758;6.120;2023-05-27T13:43:38;31.90;56.20
7972;DHT22;4031;49.758;6.120;2023-05-27T13:46:03;31.70;56.90
7972;DHT22;4031;49.758;6.120;2023-05-27T13:48:29;32.00;55.50
7972;DHT22;4031;49.758;6.120;2023-05-27T13:50:55;32.00;55.40
7972;DHT22;4031;49.758;6.120;2023-05-27T13:53:22;32.00;55.80
7972;DHT22;4031;49.758;6.120;2023-05-27T13:55:48;31.80;55.80
7972;DHT22;4031;49.758;6.120;2023-05-27T13:58:14;31.70;54.30
7972;DHT22;4031;49.758;6.120;2023-05-27T14:00:40;31.50;55.20
7972;DHT22;4031;49.758;6.120;2023-05-27T14:03:06;31.60;56.20
7972;DHT22;4031;49.758;6.120;2023-05-27T14:05:32;31.50;53.80
7972;DHT22;4031;49.758;6.120;2023-05-27T14:07:59;31.10;55.90
7972;DHT22;4031;49.758;6.120;2023-05-27T14:10:26;31.00;52.50
7972;DHT22;4031;49.758;6.120;2023-05-27T14:12:52;31.30;54.20
7972;DHT22;4031;49.758;6.120;2023-05-27T14:15:18;31.10;52.90
7972;DHT22;4031;49.758;6.120;2023-05-27T14:17:44;30.90;53.60
7972;DHT22;4031;49.758;6.120;2023-05-27T14:20:10;31.00;53.10
7972;DHT22;4031;49.758;6.120;2023-05-27T14:22:36;31.60;54.40
7972;DHT22;4031;49.758;6.120;2023-05-27T14:25:03;31.90;54.50
7972;DHT22;4031;49.758;6.120;2023-05-27T14:27:29;31.80;53.90
7972;DHT22;4031;49.758;6.120;2023-05-27T14:29:55;32.20;53.60
7972;DHT22;4031;49.758;6.120;2023-05-27T14:32:21;32.10;52.30
7972;DHT22;4031;49.758;6.120;2023-05-27T14:34:46;31.90;52.40
7972;DHT22;4031;49.758;6.120;2023-05-27T14:37:12;31.90;50.70
7972;DHT22;4031;49.758;6.120;2023-05-27T14:39:38;31.70;51.10
7972;DHT22;4031;49.758;6.120;2023-05-27T14:42:04;31.60;52.80
7972;DHT22;4031;49.758;6.120;2023-05-27T14:44:33;31.30;55.00
7972;DHT22;4031;49.758;6.120;2023-05-27T14:47:01;31.20;52.90
7972;DHT22;4031;49.758;6.120;2023-05-27T14:49:27;31.20;52.20
7972;DHT22;4031;49.758;6.120;2023-05-27T14:51:52;31.00;53.50
7972;DHT22;4031;49.758;6.120;2023-05-27T14:54:18;31.10;52.50
7972;DHT22;4031;49.758;6.120;2023-05-27T14:56:44;31.00;52.60
7972;DHT22;4031;49.758;6.120;2023-05-27T14:59:10;31.10;54.50
7972;DHT22;4031;49.758;6.120;2023-05-27T15:01:35;31.00;54.20
7972;DHT22;4031;49.758;6.120;2023-05-27T15:04:01;30.90;54.40
7972;DHT22;4031;49.758;6.120;2023-05-27T15:06:27;31.00;54.40
7972;DHT22;4031;49.758;6.120;2023-05-27T15:08:52;30.80;55.60
7972;DHT22;4031;49.758;6.120;2023-05-27T15:11:18;30.30;53.80
7972;DHT22;4031;49.758;6.120;2023-05-27T15:13:44;29.90;56.40
7972;DHT22;4031;49.758;6.120;2023-05-27T15:16:09;29.60;56.70
7972;DHT22;4031;49.758;6.120;2023-05-27T15:18:35;29.30;55.80
7972;DHT22;4031;49.758;6.120;2023-05-27T15:21:01;29.20;55.80
7972;DHT22;4031;49.758;6.120;2023-05-27T15:23:26;29.10;55.70
7972;DHT22;4031;49.758;6.120;2023-05-27T15:25:52;29.20;57.20
7972;DHT22;4031;49.758;6.120;2023-05-27T15:28:19;29.10;53.80
7972;DHT22;4031;49.758;6.120;2023-05-27T15:30:44;29.00;54.50
7972;DHT22;4031;49.758;6.120;2023-05-27T15:33:10;28.90;54.60
7972;DHT22;4031;49.758;6.120;2023-05-27T15:35:36;28.70;56.30
7972;DHT22;4031;49.758;6.120;2023-05-27T15:38:02;28.60;54.80
7972;DHT22;4031;49.758;6.120;2023-05-27T15:40:27;28.60;55.00
7972;DHT22;4031;49.758;6.120;2023-05-27T15:42:53;28.40;53.20
7972;DHT22;4031;49.758;6.120;2023-05-27T15:45:19;28.40;54.90
7972;DHT22;4031;49.758;6.120;2023-05-27T15:47:44;28.50;55.10
7972;DHT22;4031;49.758;6.120;2023-05-27T15:50:10;28.50;52.50
7972;DHT22;4031;49.758;6.120;2023-05-27T15:52:37;28.30;54.00
7972;DHT22;4031;49.758;6.120;2023-05-27T15:55:03;28.20;53.20
7972;DHT22;4031;49.758;6.120;2023-05-27T15:57:29;28.00;52.20
7972;DHT22;4031;49.758;6.120;2023-05-27T15:59:55;27.90;55.50
7972;DHT22;4031;49.758;6.120;2023-05-27T16:02:21;28.00;54.10
7972;DHT22;4031;49.758;6.120;2023-05-27T16:04:46;28.00;51.60
7972;DHT22;4031;49.758;6.120;2023-05-27T16:07:13;27.90;54.00
7972;DHT22;4031;49.758;6.120;2023-05-27T16:09:39;27.90;53.40